Big Sandy, Montana
Current Conditions -  °F | °C
As of 6:53 AM on Sunday 25 Jan 2015 (Local Time) from KHVR Reporting Station
Clear Clear  
Wind Chill: 36°   Ceiling: Unl
Heat Index: 36°   Visibility: 10mi
Dew Point: 32°   Wind: 3mph
Humidity: 86%   Direction: 230°SW
Pressure: 29.89"   Gusts: NA
Location:  48.18°N, 110.11°W
Report Text: KHVR 251353Z AUTO 23003KT 10SM CLR 02/00 A2989 RMK AO2 SLP144 T00220000
Loading
Personal Weather Stations






























Interactive Weather Map New forecast layout! Learn more

10-Day Weather Forecast

Advertisements
Track Severe Weather on mobile